createdAt,value
2022-12-08T00:02:17.333Z,100175.81
2022-12-08T00:06:43.285Z,100173.63
2022-12-08T00:10:49.741Z,100172.09
2022-12-08T00:14:55.137Z,100164.84
2022-12-08T00:18:58.146Z,100149.41
2022-12-08T00:23:01.234Z,100146.34
2022-12-08T00:27:04.267Z,100145.19
2022-12-08T00:31:12.718Z,100148.00
2022-12-08T00:35:15.901Z,100144.25
2022-12-08T00:39:19.886Z,100143.91
2022-12-08T00:43:22.885Z,100133.91
2022-12-08T00:47:27.225Z,100131.19
2022-12-08T00:51:30.427Z,100123.94
2022-12-08T00:55:33.416Z,100124.75
2022-12-08T00:59:36.465Z,100122.25
2022-12-08T01:03:41.307Z,100116.47
2022-12-08T01:07:44.461Z,100118.53
2022-12-08T01:11:48.021Z,100121.53
2022-12-08T01:15:51.105Z,100115.63
2022-12-08T01:19:55.482Z,100111.06
2022-12-08T01:24:00.786Z,100108.81
2022-12-08T01:28:03.915Z,100108.66
2022-12-08T01:32:06.995Z,100101.19
2022-12-08T01:36:20.955Z,100101.19
2022-12-08T01:40:24.174Z,100109.31
2022-12-08T01:44:54.862Z,100110.63
2022-12-08T01:49:04.491Z,100118.75
2022-12-08T01:53:11.997Z,100114.00
2022-12-08T01:57:19.698Z,100102.16
2022-12-08T02:01:23.051Z,100113.63
2022-12-08T02:05:29.151Z,100095.03
2022-12-08T02:09:33.913Z,100098.78
2022-12-08T02:13:37.112Z,100098.78
2022-12-08T02:17:54.858Z,100087.94
2022-12-08T02:22:02.277Z,100083.19
2022-12-08T02:26:38.716Z,100079.47
2022-12-08T02:30:52.465Z,100067.97
2022-12-08T02:35:00.434Z,100070.69
2022-12-08T02:39:12.181Z,100042.94
2022-12-08T02:43:22.217Z,100048.72
2022-12-08T02:47:27.648Z,100049.56
2022-12-08T02:51:32.266Z,100037.03
2022-12-08T02:55:47.651Z,100028.75
2022-12-08T03:00:05.816Z,100026.22
2022-12-08T03:04:16.226Z,100024.00
2022-12-08T03:08:26.513Z,100018.38
2022-12-08T03:12:34.069Z,100012.13
2022-12-08T03:16:41.519Z,100003.38
2022-12-08T03:20:45.997Z,99998.59
2022-12-08T03:24:50.810Z,99995.03
2022-12-08T03:28:56.143Z,99996.91
2022-12-08T03:33:05.478Z,99989.16
2022-12-08T03:37:08.712Z,99986.75
2022-12-08T03:41:19.284Z,99990.47
2022-12-08T03:45:22.605Z,99981.34
2022-12-08T03:49:26.013Z,99976.28
2022-12-08T03:53:29.033Z,99964.31
2022-12-08T03:57:33.429Z,99966.19
2022-12-08T04:01:36.540Z,99959.09
2022-12-08T04:05:39.642Z,99975.06
2022-12-08T04:09:42.743Z,99964.88
2022-12-08T04:13:47.938Z,99959.84
2022-12-08T04:17:51.019Z,99964.22
2022-12-08T04:21:54.470Z,99961.16
2022-12-08T04:25:57.588Z,99962.84
2022-12-08T04:30:02.307Z,99939.31
2022-12-08T04:34:05.678Z,99937.81
2022-12-08T04:38:08.728Z,99939.13
2022-12-08T04:42:11.775Z,99938.66
2022-12-08T04:46:16.322Z,99939.31
2022-12-08T04:50:19.643Z,99946.22
2022-12-08T04:54:22.736Z,99939.50
2022-12-08T04:58:25.928Z,99924.94
2022-12-08T05:02:30.472Z,99936.13
2022-12-08T05:06:38.697Z,99939.22
2022-12-08T05:10:45.801Z,99937.25
2022-12-08T05:14:50.797Z,99938.94
2022-12-08T05:18:55.664Z,99943.31
2022-12-08T05:22:58.848Z,99942.84
2022-12-08T05:27:01.991Z,99933.97
2022-12-08T05:31:05.927Z,99944.13
2022-12-08T05:35:11.357Z,99939.09
2022-12-08T05:39:14.845Z,99935.34
2022-12-08T05:43:17.888Z,99924.91
2022-12-08T05:47:21.029Z,99923.22
2022-12-08T05:51:25.604Z,99928.47
2022-12-08T05:55:28.678Z,99913.63
2022-12-08T05:59:31.705Z,99912.75
2022-12-08T06:03:34.935Z,99919.84
2022-12-08T06:07:40.399Z,99913.41
2022-12-08T06:11:43.846Z,99908.00
2022-12-08T06:15:46.936Z,99914.81
2022-12-08T06:19:50.089Z,99908.75
2022-12-08T06:23:56.125Z,99911.09
2022-12-08T06:27:59.166Z,99916.03
2022-12-08T06:32:02.270Z,99911.00
2022-12-08T06:36:06.385Z,99926.38
2022-12-08T06:40:11.986Z,99913.88
2022-12-08T06:44:15.093Z,99915.91
2022-12-08T06:48:18.823Z,99925.78
2022-12-08T06:52:21.828Z,99920.78
2022-12-08T06:56:28.099Z,99924.50
2022-12-08T07:00:31.221Z,99922.16
2022-12-08T07:04:34.394Z,99932.78
2022-12-08T07:08:37.708Z,99916.09
2022-12-08T07:12:42.108Z,99923.53
2022-12-08T07:16:45.185Z,99923.34
2022-12-08T07:20:48.376Z,99920.63
2022-12-08T07:24:51.402Z,99925.22
2022-12-08T07:28:55.767Z,99932.31
2022-12-08T07:32:59.134Z,99923.53
2022-12-08T07:37:02.964Z,99925.22
2022-12-08T07:41:06.892Z,99926.03
2022-12-08T07:45:11.978Z,99932.31
2022-12-08T07:49:15.013Z,99925.38
2022-12-08T07:53:18.051Z,99922.03
2022-12-08T07:57:21.101Z,99920.53
2022-12-08T08:01:29.057Z,99917.84
2022-12-08T08:05:33.323Z,99908.72
2022-12-08T08:09:36.459Z,99911.13
2022-12-08T08:13:39.504Z,99904.03
2022-12-08T08:17:43.986Z,99913.16
2022-12-08T08:21:47.050Z,99907.56
2022-12-08T08:25:50.147Z,99908.78
2022-12-08T08:29:53.343Z,99906.72
2022-12-08T08:33:58.871Z,99910.91
2022-12-08T08:38:02.466Z,99914.78
2022-12-08T08:42:05.750Z,99915.44
2022-12-08T08:46:09.986Z,99906.75
2022-12-08T08:50:14.616Z,99908.28
2022-12-08T08:54:17.647Z,99902.66
2022-12-08T08:58:20.705Z,99904.53
2022-12-08T09:02:24.116Z,99918.06
2022-12-08T09:06:29.194Z,99910.56
2022-12-08T09:10:32.584Z,99911.59
2022-12-08T09:14:36.053Z,99910.97
2022-12-08T09:18:39.144Z,99907.31
2022-12-08T09:22:43.587Z,99916.09
2022-12-08T09:26:47.171Z,99923.63
2022-12-08T09:30:52.411Z,99915.72
2022-12-08T09:34:55.541Z,99935.31
2022-12-08T09:38:59.953Z,99921.59
2022-12-08T09:43:10.997Z,99914.59
2022-12-08T09:47:22.136Z,99911.00
2022-12-08T09:51:27.226Z,99909.31
2022-12-08T09:55:41.599Z,99898.59
2022-12-08T09:59:48.904Z,99895.78
2022-12-08T10:03:54.856Z,99891.69
2022-12-08T10:08:08.592Z,99894.31
2022-12-08T10:12:21.109Z,99897.22
2022-12-08T10:16:30.177Z,99886.47
2022-12-08T10:20:38.280Z,99894.41
2022-12-08T10:24:47.370Z,99888.53
2022-12-08T10:28:52.362Z,99877.72
2022-12-08T10:32:55.772Z,99888.06
2022-12-08T10:37:00.839Z,99882.09
2022-12-08T10:41:07.765Z,99884.34
2022-12-08T10:45:22.940Z,99870.81
2022-12-08T10:49:32.344Z,99862.50
2022-12-08T10:53:46.631Z,99864.13
2022-12-08T10:57:50.081Z,99851.31
2022-12-08T11:01:57.081Z,99849.94
2022-12-08T11:06:08.946Z,99838.88
2022-12-08T11:10:19.438Z,99831.94
2022-12-08T11:14:26.186Z,99821.06
2022-12-08T11:18:40.248Z,99811.38
2022-12-08T11:22:44.865Z,99796.31
2022-12-08T11:26:52.025Z,99782.72
2022-12-08T11:31:02.102Z,99781.72
2022-12-08T11:35:08.453Z,99774.72
2022-12-08T11:39:14.172Z,99778.88
2022-12-08T11:43:23.177Z,99777.94
2022-12-08T11:47:32.752Z,99768.22
2022-12-08T11:51:40.607Z,99779.09
2022-12-08T11:55:50.103Z,99768.22
2022-12-08T11:59:57.293Z,99753.78
2022-12-08T12:04:17.257Z,99758.75
2022-12-08T12:08:37.002Z,99745.31
2022-12-08T12:12:55.028Z,99741.28
2022-12-08T12:17:04.103Z,99732.19
2022-12-08T12:21:12.325Z,99725.97
2022-12-08T12:25:22.700Z,99727.16
2022-12-08T12:29:29.281Z,99726.69
2022-12-08T12:33:33.063Z,99728.50
2022-12-08T12:37:39.934Z,99720.75
2022-12-08T12:41:48.561Z,99729.06
2022-12-08T12:45:52.011Z,99726.66
2022-12-08T12:50:10.604Z,99715.72
2022-12-08T12:54:24.490Z,99720.31
2022-12-08T12:58:41.041Z,99721.56
2022-12-08T13:02:49.135Z,99729.91
2022-12-08T13:06:52.437Z,99723.31
2022-12-08T13:11:02.045Z,99716.09
2022-12-08T13:15:08.274Z,99724.59
2022-12-08T13:19:15.965Z,99719.81
2022-12-08T13:23:45.929Z,99718.28
2022-12-08T13:27:55.572Z,99707.06
2022-12-08T13:32:01.004Z,99712.22
2022-12-08T13:36:15.994Z,99703.50
2022-12-08T13:40:26.386Z,99706.16
2022-12-08T13:45:18.453Z,99696.22
2022-12-08T13:58:27.461Z,99692.78
2022-12-08T14:02:36.258Z,99692.34
2022-12-08T14:06:43.854Z,99696.13
2022-12-08T14:10:53.864Z,99694.28
2022-12-08T14:15:23.177Z,99705.31
2022-12-08T14:19:28.143Z,99719.50
2022-12-08T14:23:35.784Z,99724.41
2022-12-08T14:27:39.648Z,99728.53
2022-12-08T14:31:42.708Z,99721.44
2022-12-08T14:35:51.369Z,99714.34
2022-12-08T14:40:22.969Z,99707.25
2022-12-08T14:44:26.657Z,99716.22
2022-12-08T14:48:44.743Z,99713.94
2022-12-08T14:52:47.991Z,99703.06
2022-12-08T14:56:55.841Z,99698.47
2022-12-08T15:01:00.989Z,99695.97
2022-12-08T15:05:11.346Z,99696.53
2022-12-08T15:09:19.142Z,99697.56
2022-12-08T15:13:44.832Z,99695.91
2022-12-08T15:17:52.271Z,99703.38
2022-12-08T15:21:56.771Z,99709.19
2022-12-08T15:26:00.860Z,99700.03
2022-12-08T15:30:14.191Z,99703.75
2022-12-08T15:34:17.304Z,99700.41
2022-12-08T15:38:23.722Z,99701.25
2022-12-08T15:42:26.862Z,99700.81
2022-12-08T15:46:31.363Z,99704.56
2022-12-08T15:50:34.486Z,99709.50
2022-12-08T15:54:37.638Z,99702.63
2022-12-08T15:58:57.337Z,99708.03
2022-12-08T16:03:42.511Z,99709.91
2022-12-08T16:07:30.032Z,99708.56
2022-12-08T16:12:05.751Z,99709.31
2022-12-08T16:16:17.887Z,99711.81
2022-12-08T16:25:14.752Z,99716.03
2022-12-08T16:29:22.898Z,99706.50
2022-12-08T16:33:25.949Z,99696.69
2022-12-08T16:37:29.564Z,99713.19
2022-12-08T16:41:51.660Z,99704.44
2022-12-08T16:45:54.754Z,99708.16
2022-12-08T16:49:57.978Z,99711.53
2022-12-08T16:54:01.230Z,99704.44
2022-12-08T16:58:09.114Z,99711.91
2022-12-08T17:02:16.271Z,99706.50
2022-12-08T17:06:20.135Z,99711.63
2022-12-08T17:10:25.956Z,99703.53
2022-12-08T17:14:30.415Z,99701.00
2022-12-08T17:18:33.517Z,99710.13
2022-12-08T17:22:37.259Z,99703.91
2022-12-08T17:26:40.375Z,99702.66
2022-12-08T17:30:44.790Z,99698.88
2022-12-08T17:34:48.032Z,99697.75
2022-12-08T17:38:51.056Z,99699.25
2022-12-08T17:42:54.065Z,99704.66
2022-12-08T17:46:58.453Z,99706.34
2022-12-08T17:51:01.597Z,99704.00
2022-12-08T17:55:05.191Z,99706.72
2022-12-08T17:59:08.209Z,99703.75
2022-12-08T18:03:12.907Z,99702.47
2022-12-08T18:07:15.920Z,99703.59
2022-12-08T18:11:20.841Z,99706.13
2022-12-08T18:15:23.952Z,99715.97
2022-12-08T18:19:28.357Z,99706.53
2022-12-08T18:23:31.390Z,99719.88
2022-12-08T18:27:38.574Z,99725.94
2022-12-08T18:31:44.569Z,99707.97
2022-12-08T18:35:48.987Z,99707.13
2022-12-08T18:39:52.703Z,99707.84
2022-12-08T18:43:57.311Z,99715.97
2022-12-08T18:48:00.417Z,99730.03
2022-12-08T18:52:05.227Z,99730.16
2022-12-08T18:56:09.448Z,99729.28
2022-12-08T19:00:14.830Z,99732.19
2022-12-08T19:04:28.470Z,99727.25
2022-12-08T19:08:34.187Z,99717.97
2022-12-08T19:12:37.251Z,99722.34
2022-12-08T19:16:40.302Z,99726.41
2022-12-08T19:20:43.355Z,99726.38
2022-12-08T19:24:47.725Z,99731.44
2022-12-08T19:28:50.863Z,99738.72
2022-12-08T19:32:53.892Z,99734.44
2022-12-08T19:36:56.960Z,99737.44
2022-12-08T19:41:19.157Z,99744.34
2022-12-08T19:45:23.351Z,99738.56
2022-12-08T19:49:26.500Z,99734.69
2022-12-08T19:53:29.595Z,99741.47
2022-12-08T19:57:34.054Z,99734.09
2022-12-08T20:01:38.403Z,99729.19
2022-12-08T20:05:43.086Z,99733.56
2022-12-08T20:09:46.108Z,99736.44
2022-12-08T20:13:50.551Z,99729.38
2022-12-08T20:17:53.927Z,99726.66
2022-12-08T20:21:57.715Z,99720.59
2022-12-08T20:26:00.760Z,99733.44
2022-12-08T20:30:06.470Z,99730.94
2022-12-08T20:34:15.081Z,99731.31
2022-12-08T20:38:18.134Z,99727.09
2022-12-08T20:42:21.235Z,99732.50
2022-12-08T20:46:25.741Z,99732.50
2022-12-08T20:50:29.318Z,99732.88
2022-12-08T20:54:32.537Z,99731.69
2022-12-08T20:58:35.629Z,99737.91
2022-12-08T21:02:46.852Z,99739.88
2022-12-08T21:06:50.270Z,99734.69
2022-12-08T21:10:56.753Z,99723.66
2022-12-08T21:14:59.923Z,99720.59
2022-12-08T21:19:06.195Z,99724.31
2022-12-08T21:23:09.532Z,99714.53
2022-12-08T21:27:12.595Z,99718.09
2022-12-08T21:31:17.882Z,99717.44
2022-12-08T21:35:22.493Z,99714.91
2022-12-08T21:39:25.650Z,99717.81
2022-12-08T21:43:28.814Z,99715.09
2022-12-08T21:47:32.053Z,99714.63
2022-12-08T21:51:41.463Z,99712.28
2022-12-08T21:55:44.688Z,99711.63
2022-12-08T21:59:47.849Z,99707.31
2022-12-08T22:03:51.193Z,99718.75
2022-12-08T22:07:55.984Z,99722.19
2022-12-08T22:11:59.111Z,99720.75
2022-12-08T22:16:04.933Z,99734.84
2022-12-08T22:20:11.619Z,99720.16
2022-12-08T22:24:16.413Z,99727.13
2022-12-08T22:28:19.677Z,99733.84
2022-12-08T22:32:23.075Z,99734.31
2022-12-08T22:36:30.068Z,99733.00
2022-12-08T22:40:34.620Z,99735.69
2022-12-08T22:44:37.838Z,99725.28
2022-12-08T22:48:41.048Z,99729.38
2022-12-08T22:52:44.227Z,99735.81
2022-12-08T22:56:48.681Z,99729.06
2022-12-08T23:00:52.025Z,99723.19
2022-12-08T23:04:56.924Z,99724.72
2022-12-08T23:09:00.273Z,99719.22
2022-12-08T23:13:05.039Z,99726.47
2022-12-08T23:17:08.216Z,99727.03
2022-12-08T23:21:14.838Z,99728.69
2022-12-08T23:25:19.098Z,99728.19
2022-12-08T23:29:23.606Z,99727.59
2022-12-08T23:33:26.760Z,99723.91
2022-12-08T23:37:30.390Z,99719.84
2022-12-08T23:41:33.707Z,99720.84
2022-12-08T23:45:38.290Z,99723.53
2022-12-08T23:49:41.573Z,99714.94
2022-12-08T23:53:45.545Z,99723.88
2022-12-08T23:57:48.595Z,99719.53
